sensor_id;sensor_type;location;lat;lon;timestamp;temperature;humidity
47757;SHT35;22147;52.388;13.390;2022-12-18T00:01:49;-5.65;91.89
47757;SHT35;22147;52.388;13.390;2022-12-18T00:04:25;-5.61;91.91
47757;SHT35;22147;52.388;13.390;2022-12-18T00:06:56;-5.37;91.30
47757;SHT35;22147;52.388;13.390;2022-12-18T00:09:26;-5.40;90.00
47757;SHT35;22147;52.388;13.390;2022-12-18T00:12:10;-5.74;90.06
47757;SHT35;22147;52.388;13.390;2022-12-18T00:14:44;-5.62;90.78
47757;SHT35;22147;52.388;13.390;2022-12-18T00:17:14;-5.65;90.87
47757;SHT35;22147;52.388;13.390;2022-12-18T00:19:44;-5.72;90.78
47757;SHT35;22147;52.388;13.390;2022-12-18T00:22:14;-6.02;91.31
47757;SHT35;22147;52.388;13.390;2022-12-18T00:24:44;-5.81;91.85
47757;SHT35;22147;52.388;13.390;2022-12-18T00:27:14;-5.74;91.85
47757;SHT35;22147;52.388;13.390;2022-12-18T00:29:44;-5.74;91.77
47757;SHT35;22147;52.388;13.390;2022-12-18T00:32:15;-5.54;91.39
47757;SHT35;22147;52.388;13.390;2022-12-18T00:34:45;-5.72;91.00
47757;SHT35;22147;52.388;13.390;2022-12-18T00:37:15;-5.64;91.20
47757;SHT35;22147;52.388;13.390;2022-12-18T00:39:49;-5.62;91.27
47757;SHT35;22147;52.388;13.390;2022-12-18T00:42:20;-5.71;91.35
47757;SHT35;22147;52.388;13.390;2022-12-18T00:45:08;-5.70;91.57
47757;SHT35;22147;52.388;13.390;2022-12-18T00:47:42;-5.65;91.66
47757;SHT35;22147;52.388;13.390;2022-12-18T00:50:11;-5.55;91.37
47757;SHT35;22147;52.388;13.390;2022-12-18T00:52:40;-5.65;91.20
47757;SHT35;22147;52.388;13.390;2022-12-18T00:55:10;-5.62;91.26
47757;SHT35;22147;52.388;13.390;2022-12-18T00:57:40;-5.68;91.19
47757;SHT35;22147;52.388;13.390;2022-12-18T01:00:14;-5.68;91.27
47757;SHT35;22147;52.388;13.390;2022-12-18T01:02:44;-5.65;91.10
47757;SHT35;22147;52.388;13.390;2022-12-18T01:05:15;-5.67;90.82
47757;SHT35;22147;52.388;13.390;2022-12-18T01:07:45;-5.68;90.80
47757;SHT35;22147;52.388;13.390;2022-12-18T01:10:15;-5.44;90.65
47757;SHT35;22147;52.388;13.390;2022-12-18T01:12:45;-5.65;89.75
47757;SHT35;22147;52.388;13.390;2022-12-18T01:15:17;-5.71;90.09
47757;SHT35;22147;52.388;13.390;2022-12-18T01:17:47;-5.77;90.09
47757;SHT35;22147;52.388;13.390;2022-12-18T01:20:17;-5.88;90.05
47757;SHT35;22147;52.388;13.390;2022-12-18T01:22:47;-5.89;90.32
47757;SHT35;22147;52.388;13.390;2022-12-18T01:25:18;-5.75;90.50
47757;SHT35;22147;52.388;13.390;2022-12-18T01:27:48;-5.70;90.34
47757;SHT35;22147;52.388;13.390;2022-12-18T01:30:18;-5.86;89.89
47757;SHT35;22147;52.388;13.390;2022-12-18T01:32:48;-5.91;90.39
47757;SHT35;22147;52.388;13.390;2022-12-18T01:35:18;-6.05;90.67
47757;SHT35;22147;52.388;13.390;2022-12-18T01:37:48;-5.99;91.09
47757;SHT35;22147;52.388;13.390;2022-12-18T01:40:18;-5.98;91.17
47757;SHT35;22147;52.388;13.390;2022-12-18T01:42:54;-5.82;91.54
47757;SHT35;22147;52.388;13.390;2022-12-18T01:45:31;-5.79;91.13
47757;SHT35;22147;52.388;13.390;2022-12-18T01:48:09;-5.88;90.84
47757;SHT35;22147;52.388;13.390;2022-12-18T01:50:42;-5.92;90.83
47757;SHT35;22147;52.388;13.390;2022-12-18T01:53:17;-5.93;91.11
47757;SHT35;22147;52.388;13.390;2022-12-18T01:55:55;-5.92;91.15
47757;SHT35;22147;52.388;13.390;2022-12-18T01:58:56;-5.99;91.08
47757;SHT35;22147;52.388;13.390;2022-12-18T02:01:32;-6.05;90.89
47757;SHT35;22147;52.388;13.390;2022-12-18T02:04:27;-5.96;90.85
47757;SHT35;22147;52.388;13.390;2022-12-18T02:10:26;-5.92;90.28
47757;SHT35;22147;52.388;13.390;2022-12-18T02:16:43;-6.02;90.44
47757;SHT35;22147;52.388;13.390;2022-12-18T02:26:34;-6.01;90.90
47757;SHT35;22147;52.388;13.390;2022-12-18T02:29:36;-6.31;90.88
47757;SHT35;22147;52.388;13.390;2022-12-18T02:32:19;-6.19;91.18
47757;SHT35;22147;52.388;13.390;2022-12-18T02:34:56;-6.47;91.17
47757;SHT35;22147;52.388;13.390;2022-12-18T02:37:31;-6.44;91.53
47757;SHT35;22147;52.388;13.390;2022-12-18T02:40:06;-6.30;91.75
47757;SHT35;22147;52.388;13.390;2022-12-18T02:42:36;-6.01;91.50
47757;SHT35;22147;52.388;13.390;2022-12-18T02:45:07;-6.07;90.90
47757;SHT35;22147;52.388;13.390;2022-12-18T02:47:46;-6.09;90.78
47757;SHT35;22147;52.388;13.390;2022-12-18T02:50:45;-6.07;90.99
47757;SHT35;22147;52.388;13.390;2022-12-18T02:53:37;-6.03;90.85
47757;SHT35;22147;52.388;13.390;2022-12-18T02:56:30;-6.07;90.68
47757;SHT35;22147;52.388;13.390;2022-12-18T02:59:21;-5.92;90.91
47757;SHT35;22147;52.388;13.390;2022-12-18T03:02:20;-6.03;90.54
47757;SHT35;22147;52.388;13.390;2022-12-18T03:07:50;-6.27;91.12
47757;SHT35;22147;52.388;13.390;2022-12-18T03:10:37;-6.06;91.18
47757;SHT35;22147;52.388;13.390;2022-12-18T03:13:22;-6.01;90.65
47757;SHT35;22147;52.388;13.390;2022-12-18T03:15:59;-6.01;90.25
47757;SHT35;22147;52.388;13.390;2022-12-18T03:18:47;-6.06;90.23
47757;SHT35;22147;52.388;13.390;2022-12-18T03:21:28;-6.06;90.47
47757;SHT35;22147;52.388;13.390;2022-12-18T03:23:57;-5.99;90.52
47757;SHT35;22147;52.388;13.390;2022-12-18T03:26:31;-6.10;90.25
47757;SHT35;22147;52.388;13.390;2022-12-18T03:29:09;-6.02;90.44
47757;SHT35;22147;52.388;13.390;2022-12-18T03:31:54;-5.91;90.21
47757;SHT35;22147;52.388;13.390;2022-12-18T03:34:37;-5.93;89.64
47757;SHT35;22147;52.388;13.390;2022-12-18T03:37:08;-5.95;89.66
47757;SHT35;22147;52.388;13.390;2022-12-18T03:39:39;-6.01;89.58
47757;SHT35;22147;52.388;13.390;2022-12-18T03:42:50;-5.98;89.91
47757;SHT35;22147;52.388;13.390;2022-12-18T03:45:35;-5.96;89.61
47757;SHT35;22147;52.388;13.390;2022-12-18T03:49:08;-6.12;89.80
47757;SHT35;22147;52.388;13.390;2022-12-18T03:51:50;-6.13;90.27
47757;SHT35;22147;52.388;13.390;2022-12-18T03:54:28;-6.13;90.06
47757;SHT35;22147;52.388;13.390;2022-12-18T03:57:21;-6.31;90.14
47757;SHT35;22147;52.388;13.390;2022-12-18T04:00:08;-6.13;90.58
47757;SHT35;22147;52.388;13.390;2022-12-18T04:02:51;-6.14;90.17
47757;SHT35;22147;52.388;13.390;2022-12-18T04:05:27;-6.06;90.00
47757;SHT35;22147;52.388;13.390;2022-12-18T04:07:59;-6.12;90.18
47757;SHT35;22147;52.388;13.390;2022-12-18T04:10:30;-6.29;90.11
47757;SHT35;22147;52.388;13.390;2022-12-18T04:13:00;-6.29;90.63
47757;SHT35;22147;52.388;13.390;2022-12-18T04:15:36;-6.09;90.75
47757;SHT35;22147;52.388;13.390;2022-12-18T04:18:08;-6.17;90.29
47757;SHT35;22147;52.388;13.390;2022-12-18T04:20:38;-6.20;90.29
47757;SHT35;22147;52.388;13.390;2022-12-18T04:23:08;-6.16;90.39
47757;SHT35;22147;52.388;13.390;2022-12-18T04:25:38;-6.27;90.48
47757;SHT35;22147;52.388;13.390;2022-12-18T04:28:08;-6.09;90.80
47757;SHT35;22147;52.388;13.390;2022-12-18T04:30:38;-6.17;90.23
47757;SHT35;22147;52.388;13.390;2022-12-18T04:33:12;-6.29;90.32
47757;SHT35;22147;52.388;13.390;2022-12-18T04:35:43;-6.24;90.63
47757;SHT35;22147;52.388;13.390;2022-12-18T04:38:13;-6.26;90.67
47757;SHT35;22147;52.388;13.390;2022-12-18T04:40:43;-6.23;90.81
47757;SHT35;22147;52.388;13.390;2022-12-18T04:43:13;-6.13;90.91
47757;SHT35;22147;52.388;13.390;2022-12-18T04:45:43;-6.19;90.60
47757;SHT35;22147;52.388;13.390;2022-12-18T04:48:14;-6.29;90.53
47757;SHT35;22147;52.388;13.390;2022-12-18T04:50:44;-6.03;90.66
47757;SHT35;22147;52.388;13.390;2022-12-18T04:53:14;-6.09;90.13
47757;SHT35;22147;52.388;13.390;2022-12-18T04:55:42;-6.13;90.13
47757;SHT35;22147;52.388;13.390;2022-12-18T04:58:11;-6.20;90.16
47757;SHT35;22147;52.388;13.390;2022-12-18T05:00:39;-6.24;90.32
47757;SHT35;22147;52.388;13.390;2022-12-18T05:03:08;-6.13;90.81
47757;SHT35;22147;52.388;13.390;2022-12-18T05:05:36;-6.22;90.58
47757;SHT35;22147;52.388;13.390;2022-12-18T05:08:04;-5.98;90.51
47757;SHT35;22147;52.388;13.390;2022-12-18T05:10:33;-6.19;90.06
47757;SHT35;22147;52.388;13.390;2022-12-18T05:13:04;-6.10;90.34
47757;SHT35;22147;52.388;13.390;2022-12-18T05:15:33;-6.10;90.17
47757;SHT35;22147;52.388;13.390;2022-12-18T05:18:04;-6.12;90.55
47757;SHT35;22147;52.388;13.390;2022-12-18T05:20:34;-5.95;89.97
47757;SHT35;22147;52.388;13.390;2022-12-18T05:23:04;-5.99;89.41
47757;SHT35;22147;52.388;13.390;2022-12-18T05:25:34;-6.16;89.79
47757;SHT35;22147;52.388;13.390;2022-12-18T05:28:04;-5.99;90.44
47757;SHT35;22147;52.388;13.390;2022-12-18T05:30:34;-6.10;90.06
47757;SHT35;22147;52.388;13.390;2022-12-18T05:33:04;-6.22;90.22
47757;SHT35;22147;52.388;13.390;2022-12-18T05:35:34;-6.47;90.82
47757;SHT35;22147;52.388;13.390;2022-12-18T05:38:04;-6.44;91.34
47757;SHT35;22147;52.388;13.390;2022-12-18T05:40:34;-6.19;91.61
47757;SHT35;22147;52.388;13.390;2022-12-18T05:43:05;-6.10;91.29
47757;SHT35;22147;52.388;13.390;2022-12-18T05:45:39;-6.16;90.91
47757;SHT35;22147;52.388;13.390;2022-12-18T05:48:13;-6.27;90.88
47757;SHT35;22147;52.388;13.390;2022-12-18T05:50:47;-6.30;91.13
47757;SHT35;22147;52.388;13.390;2022-12-18T05:53:20;-6.03;91.49
47757;SHT35;22147;52.388;13.390;2022-12-18T05:55:50;-5.89;90.73
47757;SHT35;22147;52.388;13.390;2022-12-18T05:58:20;-5.99;90.12
47757;SHT35;22147;52.388;13.390;2022-12-18T06:00:50;-6.13;90.24
47757;SHT35;22147;52.388;13.390;2022-12-18T06:03:20;-6.29;90.80
47757;SHT35;22147;52.388;13.390;2022-12-18T06:05:50;-6.24;91.15
47757;SHT35;22147;52.388;13.390;2022-12-18T06:08:20;-6.22;91.29
47757;SHT35;22147;52.388;13.390;2022-12-18T06:10:52;-6.17;91.44
47757;SHT35;22147;52.388;13.390;2022-12-18T06:13:22;-6.07;91.58
47757;SHT35;22147;52.388;13.390;2022-12-18T06:15:52;-5.95;91.35
47757;SHT35;22147;52.388;13.390;2022-12-18T06:18:22;-5.83;90.88
47757;SHT35;22147;52.388;13.390;2022-12-18T06:20:58;-5.99;90.25
47757;SHT35;22147;52.388;13.390;2022-12-18T06:23:29;-6.06;90.41
47757;SHT35;22147;52.388;13.390;2022-12-18T06:25:57;-6.03;90.69
47757;SHT35;22147;52.388;13.390;2022-12-18T06:28:25;-5.92;91.07
47757;SHT35;22147;52.388;13.390;2022-12-18T06:30:54;-5.91;90.87
47757;SHT35;22147;52.388;13.390;2022-12-18T06:33:27;-5.83;90.77
47757;SHT35;22147;52.388;13.390;2022-12-18T06:36:05;-5.81;90.42
47757;SHT35;22147;52.388;13.390;2022-12-18T06:38:42;-6.01;90.38
47757;SHT35;22147;52.388;13.390;2022-12-18T06:41:20;-5.86;90.99
47757;SHT35;22147;52.388;13.390;2022-12-18T06:43:51;-5.55;90.33
47757;SHT35;22147;52.388;13.390;2022-12-18T06:46:27;-5.77;89.47
47757;SHT35;22147;52.388;13.390;2022-12-18T06:48:57;-5.99;89.99
47757;SHT35;22147;52.388;13.390;2022-12-18T06:51:27;-6.12;90.74
47757;SHT35;22147;52.388;13.390;2022-12-18T06:53:57;-6.10;91.20
47757;SHT35;22147;52.388;13.390;2022-12-18T06:56:27;-6.10;91.57
47757;SHT35;22147;52.388;13.390;2022-12-18T06:58:57;-5.98;91.90
47757;SHT35;22147;52.388;13.390;2022-12-18T07:01:27;-5.93;91.67
47757;SHT35;22147;52.388;13.390;2022-12-18T07:03:58;-6.01;91.54
47757;SHT35;22147;52.388;13.390;2022-12-18T07:06:28;-6.09;91.50
47757;SHT35;22147;52.388;13.390;2022-12-18T07:08:58;-5.92;91.68
47757;SHT35;22147;52.388;13.390;2022-12-18T07:11:28;-5.89;91.40
47757;SHT35;22147;52.388;13.390;2022-12-18T07:13:59;-6.05;91.16
47757;SHT35;22147;52.388;13.390;2022-12-18T07:16:29;-6.12;91.52
47757;SHT35;22147;52.388;13.390;2022-12-18T07:18:59;-6.09;91.65
47757;SHT35;22147;52.388;13.390;2022-12-18T07:21:29;-6.03;91.67
47757;SHT35;22147;52.388;13.390;2022-12-18T07:23:59;-5.82;91.68
47757;SHT35;22147;52.388;13.390;2022-12-18T07:26:29;-5.85;90.80
47757;SHT35;22147;52.388;13.390;2022-12-18T07:28:58;-5.93;90.79
47757;SHT35;22147;52.388;13.390;2022-12-18T07:31:27;-5.89;91.09
47757;SHT35;22147;52.388;13.390;2022-12-18T07:33:55;-5.83;90.92
47757;SHT35;22147;52.388;13.390;2022-12-18T07:36:24;-5.77;91.13
47757;SHT35;22147;52.388;13.390;2022-12-18T07:38:52;-5.71;91.08
47757;SHT35;22147;52.388;13.390;2022-12-18T07:41:20;-5.86;91.23
47757;SHT35;22147;52.388;13.390;2022-12-18T07:43:49;-5.74;91.63
47757;SHT35;22147;52.388;13.390;2022-12-18T07:46:18;-5.71;91.40
47757;SHT35;22147;52.388;13.390;2022-12-18T07:48:49;-5.82;91.36
47757;SHT35;22147;52.388;13.390;2022-12-18T07:51:18;-5.75;91.72
47757;SHT35;22147;52.388;13.390;2022-12-18T07:53:48;-5.67;91.77
47757;SHT35;22147;52.388;13.390;2022-12-18T07:56:21;-5.58;91.73
47757;SHT35;22147;52.388;13.390;2022-12-18T07:59:00;-5.52;91.40
47757;SHT35;22147;52.388;13.390;2022-12-18T08:01:34;-5.55;91.29
47757;SHT35;22147;52.388;13.390;2022-12-18T08:04:03;-5.58;91.30
47757;SHT35;22147;52.388;13.390;2022-12-18T08:06:33;-5.58;91.26
47757;SHT35;22147;52.388;13.390;2022-12-18T08:09:03;-5.52;91.16
47757;SHT35;22147;52.388;13.390;2022-12-18T08:11:33;-5.48;90.94
47757;SHT35;22147;52.388;13.390;2022-12-18T08:14:03;-5.67;91.03
47757;SHT35;22147;52.388;13.390;2022-12-18T08:16:33;-5.52;91.13
47757;SHT35;22147;52.388;13.390;2022-12-18T08:19:03;-5.50;91.13
47757;SHT35;22147;52.388;13.390;2022-12-18T08:21:32;-5.48;91.06
47757;SHT35;22147;52.388;13.390;2022-12-18T08:24:03;-5.50;91.22
47757;SHT35;22147;52.388;13.390;2022-12-18T08:26:33;-5.20;91.37
47757;SHT35;22147;52.388;13.390;2022-12-18T08:29:02;-5.26;90.53
47757;SHT35;22147;52.388;13.390;2022-12-18T08:31:32;-5.24;90.72
47757;SHT35;22147;52.388;13.390;2022-12-18T08:34:03;-5.12;90.57
47757;SHT35;22147;52.388;13.390;2022-12-18T08:36:32;-5.38;90.20
47757;SHT35;22147;52.388;13.390;2022-12-18T08:39:02;-5.27;90.62
47757;SHT35;22147;52.388;13.390;2022-12-18T08:41:32;-5.28;90.56
47757;SHT35;22147;52.388;13.390;2022-12-18T08:44:03;-5.31;90.83
47757;SHT35;22147;52.388;13.390;2022-12-18T08:46:51;-5.33;90.67
47757;SHT35;22147;52.388;13.390;2022-12-18T08:49:21;-5.28;90.39
47757;SHT35;22147;52.388;13.390;2022-12-18T08:51:55;-5.38;90.60
47757;SHT35;22147;52.388;13.390;2022-12-18T08:54:28;-5.35;90.84
47757;SHT35;22147;52.388;13.390;2022-12-18T08:56:57;-5.35;90.80
47757;SHT35;22147;52.388;13.390;2022-12-18T08:59:25;-5.43;90.87
47757;SHT35;22147;52.388;13.390;2022-12-18T09:01:55;-5.27;91.16
47757;SHT35;22147;52.388;13.390;2022-12-18T09:04:24;-4.93;90.94
47757;SHT35;22147;52.388;13.390;2022-12-18T09:06:55;-5.09;90.01
47757;SHT35;22147;52.388;13.390;2022-12-18T09:09:23;-5.03;90.34
47757;SHT35;22147;52.388;13.390;2022-12-18T09:11:53;-4.82;89.88
47757;SHT35;22147;52.388;13.390;2022-12-18T09:14:23;-4.99;89.43
47757;SHT35;22147;52.388;13.390;2022-12-18T09:16:53;-4.97;89.84
47757;SHT35;22147;52.388;13.390;2022-12-18T09:19:23;-4.75;89.90
47757;SHT35;22147;52.388;13.390;2022-12-18T09:21:52;-4.65;88.59
47757;SHT35;22147;52.388;13.390;2022-12-18T09:24:22;-4.89;88.81
47757;SHT35;22147;52.388;13.390;2022-12-18T09:26:55;-4.96;89.37
47757;SHT35;22147;52.388;13.390;2022-12-18T09:29:26;-4.65;89.12
47757;SHT35;22147;52.388;13.390;2022-12-18T09:31:55;-4.74;88.32
47757;SHT35;22147;52.388;13.390;2022-12-18T09:34:24;-4.95;88.81
47757;SHT35;22147;52.388;13.390;2022-12-18T09:36:52;-4.79;89.53
47757;SHT35;22147;52.388;13.390;2022-12-18T09:39:20;-4.68;89.74
47757;SHT35;22147;52.388;13.390;2022-12-18T09:41:57;-4.40;88.82
47757;SHT35;22147;52.388;13.390;2022-12-18T09:44:45;-4.35;87.38
47757;SHT35;22147;52.388;13.390;2022-12-18T09:47:22;-4.43;88.05
47757;SHT35;22147;52.388;13.390;2022-12-18T09:50:05;-4.45;89.06
47757;SHT35;22147;52.388;13.390;2022-12-18T09:52:48;-4.35;88.88
47757;SHT35;22147;52.388;13.390;2022-12-18T09:55:46;-4.60;89.47
47757;SHT35;22147;52.388;13.390;2022-12-18T09:58:38;-4.35;89.86
47757;SHT35;22147;52.388;13.390;2022-12-18T10:01:21;-4.23;88.90
47757;SHT35;22147;52.388;13.390;2022-12-18T10:03:54;-4.17;88.81
47757;SHT35;22147;52.388;13.390;2022-12-18T10:07:01;-4.11;88.42
47757;SHT35;22147;52.388;13.390;2022-12-18T10:10:07;-4.04;88.76
47757;SHT35;22147;52.388;13.390;2022-12-18T10:13:19;-4.21;89.40
47757;SHT35;22147;52.388;13.390;2022-12-18T10:19:18;-4.10;89.93
47757;SHT35;22147;52.388;13.390;2022-12-18T10:27:35;-3.97;90.06
47757;SHT35;22147;52.388;13.390;2022-12-18T10:30:26;-3.86;89.57
47757;SHT35;22147;52.388;13.390;2022-12-18T10:33:02;-3.85;89.83
47757;SHT35;22147;52.388;13.390;2022-12-18T10:35:35;-3.55;89.16
47757;SHT35;22147;52.388;13.390;2022-12-18T10:44:18;-3.86;89.75
47757;SHT35;22147;52.388;13.390;2022-12-18T10:47:02;-3.69;89.93
47757;SHT35;22147;52.388;13.390;2022-12-18T10:49:52;-3.65;90.01
47757;SHT35;22147;52.388;13.390;2022-12-18T10:52:27;-3.64;89.43
47757;SHT35;22147;52.388;13.390;2022-12-18T10:55:03;-3.83;90.32
47757;SHT35;22147;52.388;13.390;2022-12-18T10:57:39;-3.48;90.08
47757;SHT35;22147;52.388;13.390;2022-12-18T11:00:26;-3.61;89.78
47757;SHT35;22147;52.388;13.390;2022-12-18T11:02:58;-3.58;89.82
47757;SHT35;22147;52.388;13.390;2022-12-18T11:05:33;-3.66;89.96
47757;SHT35;22147;52.388;13.390;2022-12-18T11:08:04;-3.43;90.04
47757;SHT35;22147;52.388;13.390;2022-12-18T11:10:38;-3.48;89.78
47757;SHT35;22147;52.388;13.390;2022-12-18T11:13:22;-3.31;89.86
47757;SHT35;22147;52.388;13.390;2022-12-18T11:15:54;-3.11;88.90
47757;SHT35;22147;52.388;13.390;2022-12-18T11:18:35;-3.40;88.13
47757;SHT35;22147;52.388;13.390;2022-12-18T11:21:09;-3.45;89.34
47757;SHT35;22147;52.388;13.390;2022-12-18T11:23:53;-3.65;89.74
47757;SHT35;22147;52.388;13.390;2022-12-18T11:26:35;-3.74;89.73
47757;SHT35;22147;52.388;13.390;2022-12-18T11:29:18;-3.74;90.43
47757;SHT35;22147;52.388;13.390;2022-12-18T11:31:50;-3.65;90.32
47757;SHT35;22147;52.388;13.390;2022-12-18T11:34:32;-3.81;90.52
47757;SHT35;22147;52.388;13.390;2022-12-18T11:37:04;-3.76;90.82
47757;SHT35;22147;52.388;13.390;2022-12-18T11:39:54;-3.68;90.66
47757;SHT35;22147;52.388;13.390;2022-12-18T11:43:01;-3.74;90.71
47757;SHT35;22147;52.388;13.390;2022-12-18T11:45:51;-3.52;91.12
47757;SHT35;22147;52.388;13.390;2022-12-18T11:49:01;-3.74;90.29
47757;SHT35;22147;52.388;13.390;2022-12-18T11:54:34;-3.79;91.40
47757;SHT35;22147;52.388;13.390;2022-12-18T11:57:46;-3.69;91.03
47757;SHT35;22147;52.388;13.390;2022-12-18T12:00:23;-3.64;91.26
47757;SHT35;22147;52.388;13.390;2022-12-18T12:03:22;-3.79;90.98
47757;SHT35;22147;52.388;13.390;2022-12-18T12:09:37;-3.51;91.17
47757;SHT35;22147;52.388;13.390;2022-12-18T12:12:58;-3.52;90.66
47757;SHT35;22147;52.388;13.390;2022-12-18T12:16:13;-3.52;90.62
47757;SHT35;22147;52.388;13.390;2022-12-18T12:36:25;-2.96;88.62
47757;SHT35;22147;52.388;13.390;2022-12-18T12:39:08;-3.00;88.30
47757;SHT35;22147;52.388;13.390;2022-12-18T12:41:46;-3.07;87.79
47757;SHT35;22147;52.388;13.390;2022-12-18T12:44:55;-2.87;87.54
47757;SHT35;22147;52.388;13.390;2022-12-18T12:47:38;-3.03;87.50
47757;SHT35;22147;52.388;13.390;2022-12-18T12:50:20;-3.27;87.97
47757;SHT35;22147;52.388;13.390;2022-12-18T12:52:56;-3.27;88.64
47757;SHT35;22147;52.388;13.390;2022-12-18T12:55:29;-3.21;88.48
47757;SHT35;22147;52.388;13.390;2022-12-18T12:58:29;-3.14;88.23
47757;SHT35;22147;52.388;13.390;2022-12-18T13:01:16;-3.14;88.64
47757;SHT35;22147;52.388;13.390;2022-12-18T13:07:32;-3.17;87.77
47757;SHT35;22147;52.388;13.390;2022-12-18T13:13:12;-3.41;89.28
47757;SHT35;22147;52.388;13.390;2022-12-18T13:16:07;-3.48;89.23
47757;SHT35;22147;52.388;13.390;2022-12-18T13:18:38;-3.61;89.50
47757;SHT35;22147;52.388;13.390;2022-12-18T13:21:28;-3.54;89.54
47757;SHT35;22147;52.388;13.390;2022-12-18T13:24:30;-3.26;89.44
47757;SHT35;22147;52.388;13.390;2022-12-18T13:27:46;-3.45;88.60
47757;SHT35;22147;52.388;13.390;2022-12-18T13:40:57;-3.54;89.34
47757;SHT35;22147;52.388;13.390;2022-12-18T13:43:49;-3.66;88.85
47757;SHT35;22147;52.388;13.390;2022-12-18T13:46:47;-3.72;89.47
47757;SHT35;22147;52.388;13.390;2022-12-18T13:51:59;-3.54;90.02
47757;SHT35;22147;52.388;13.390;2022-12-18T13:54:42;-3.62;89.40
47757;SHT35;22147;52.388;13.390;2022-12-18T13:57:38;-3.78;89.75
47757;SHT35;22147;52.388;13.390;2022-12-18T14:00:28;-3.68;90.25
47757;SHT35;22147;52.388;13.390;2022-12-18T14:03:00;-3.38;89.34
47757;SHT35;22147;52.388;13.390;2022-12-18T14:05:37;-3.43;88.03
47757;SHT35;22147;52.388;13.390;2022-12-18T14:08:15;-3.74;89.01
47757;SHT35;22147;52.388;13.390;2022-12-18T14:10:49;-3.74;89.68
47757;SHT35;22147;52.388;13.390;2022-12-18T14:13:33;-3.71;90.01
47757;SHT35;22147;52.388;13.390;2022-12-18T14:16:07;-3.68;90.26
47757;SHT35;22147;52.388;13.390;2022-12-18T14:18:56;-3.66;90.26
47757;SHT35;22147;52.388;13.390;2022-12-18T14:21:49;-3.76;90.04
47757;SHT35;22147;52.388;13.390;2022-12-18T14:24:21;-3.50;89.99
47757;SHT35;22147;52.388;13.390;2022-12-18T14:26:52;-3.71;89.09
47757;SHT35;22147;52.388;13.390;2022-12-18T14:29:30;-3.75;89.62
47757;SHT35;22147;52.388;13.390;2022-12-18T14:34:51;-3.75;89.61
47757;SHT35;22147;52.388;13.390;2022-12-18T14:37:27;-3.87;89.87
47757;SHT35;22147;52.388;13.390;2022-12-18T14:40:03;-3.58;90.28
47757;SHT35;22147;52.388;13.390;2022-12-18T14:42:39;-3.72;89.82
47757;SHT35;22147;52.388;13.390;2022-12-18T14:45:38;-3.83;90.25
47757;SHT35;22147;52.388;13.390;2022-12-18T14:48:22;-3.90;90.68
47757;SHT35;22147;52.388;13.390;2022-12-18T14:51:24;-3.96;90.79
47757;SHT35;22147;52.388;13.390;2022-12-18T14:54:15;-3.97;91.07
47757;SHT35;22147;52.388;13.390;2022-12-18T14:57:02;-3.82;91.00
47757;SHT35;22147;52.388;13.390;2022-12-18T14:59:33;-3.95;90.73
47757;SHT35;22147;52.388;13.390;2022-12-18T15:02:27;-4.03;90.82
47757;SHT35;22147;52.388;13.390;2022-12-18T15:05:18;-3.78;89.58
47757;SHT35;22147;52.388;13.390;2022-12-18T15:07:54;-4.10;89.00
47757;SHT35;22147;52.388;13.390;2022-12-18T15:10:32;-4.07;89.93
47757;SHT35;22147;52.388;13.390;2022-12-18T15:21:07;-4.14;89.83
47757;SHT35;22147;52.388;13.390;2022-12-18T15:23:52;-4.07;89.65
47757;SHT35;22147;52.388;13.390;2022-12-18T15:26:22;-4.11;89.61
47757;SHT35;22147;52.388;13.390;2022-12-18T15:28:55;-4.04;89.66
47757;SHT35;22147;52.388;13.390;2022-12-18T15:31:34;-4.10;89.86
47757;SHT35;22147;52.388;13.390;2022-12-18T15:36:37;-4.11;89.19
47757;SHT35;22147;52.388;13.390;2022-12-18T15:39:12;-4.17;89.99
47757;SHT35;22147;52.388;13.390;2022-12-18T15:41:43;-4.21;90.44
47757;SHT35;22147;52.388;13.390;2022-12-18T15:44:35;-4.04;90.71
47757;SHT35;22147;52.388;13.390;2022-12-18T15:47:12;-4.09;90.34
47757;SHT35;22147;52.388;13.390;2022-12-18T15:49:43;-4.00;90.09
47757;SHT35;22147;52.388;13.390;2022-12-18T15:52:14;-3.90;90.31
47757;SHT35;22147;52.388;13.390;2022-12-18T15:54:54;-3.96;90.33
47757;SHT35;22147;52.388;13.390;2022-12-18T15:57:43;-3.92;89.48
47757;SHT35;22147;52.388;13.390;2022-12-18T16:00:13;-3.82;89.31
47757;SHT35;22147;52.388;13.390;2022-12-18T16:02:44;-3.95;88.55
47757;SHT35;22147;52.388;13.390;2022-12-18T16:05:18;-4.00;89.30
47757;SHT35;22147;52.388;13.390;2022-12-18T16:07:47;-4.06;89.09
47757;SHT35;22147;52.388;13.390;2022-12-18T16:10:17;-4.18;89.32
47757;SHT35;22147;52.388;13.390;2022-12-18T16:12:47;-4.09;89.74
47757;SHT35;22147;52.388;13.390;2022-12-18T16:15:16;-4.06;90.09
47757;SHT35;22147;52.388;13.390;2022-12-18T16:17:53;-4.06;89.82
47757;SHT35;22147;52.388;13.390;2022-12-18T16:20:23;-3.97;89.80
47757;SHT35;22147;52.388;13.390;2022-12-18T16:22:53;-3.86;89.80
47757;SHT35;22147;52.388;13.390;2022-12-18T16:25:28;-3.97;88.69
47757;SHT35;22147;52.388;13.390;2022-12-18T16:27:57;-4.07;88.93
47757;SHT35;22147;52.388;13.390;2022-12-18T16:30:30;-4.31;89.33
47757;SHT35;22147;52.388;13.390;2022-12-18T16:33:10;-4.35;90.08
47757;SHT35;22147;52.388;13.390;2022-12-18T16:35:40;-4.43;90.25
47757;SHT35;22147;52.388;13.390;2022-12-18T16:38:11;-4.33;90.21
47757;SHT35;22147;52.388;13.390;2022-12-18T16:40:41;-4.34;90.33
47757;SHT35;22147;52.388;13.390;2022-12-18T16:43:31;-4.38;90.12
47757;SHT35;22147;52.388;13.390;2022-12-18T16:46:00;-4.50;90.16
47757;SHT35;22147;52.388;13.390;2022-12-18T16:48:30;-4.50;90.38
47757;SHT35;22147;52.388;13.390;2022-12-18T16:51:04;-4.53;90.22
47757;SHT35;22147;52.388;13.390;2022-12-18T16:53:34;-4.58;90.36
47757;SHT35;22147;52.388;13.390;2022-12-18T16:56:04;-4.54;90.41
47757;SHT35;22147;52.388;13.390;2022-12-18T16:58:35;-4.76;90.14
47757;SHT35;22147;52.388;13.390;2022-12-18T17:01:11;-4.69;90.66
47757;SHT35;22147;52.388;13.390;2022-12-18T17:03:41;-4.64;90.40
47757;SHT35;22147;52.388;13.390;2022-12-18T17:06:13;-4.79;90.17
47757;SHT35;22147;52.388;13.390;2022-12-18T17:08:43;-4.74;90.37
47757;SHT35;22147;52.388;13.390;2022-12-18T17:11:11;-4.74;90.59
47757;SHT35;22147;52.388;13.390;2022-12-18T17:13:40;-4.78;90.33
47757;SHT35;22147;52.388;13.390;2022-12-18T17:16:08;-4.93;90.28
47757;SHT35;22147;52.388;13.390;2022-12-18T17:18:36;-4.85;90.56
47757;SHT35;22147;52.388;13.390;2022-12-18T17:21:05;-4.97;90.44
47757;SHT35;22147;52.388;13.390;2022-12-18T17:23:37;-4.92;90.76
47757;SHT35;22147;52.388;13.390;2022-12-18T17:26:06;-4.91;90.37
47757;SHT35;22147;52.388;13.390;2022-12-18T17:28:39;-4.88;90.37
47757;SHT35;22147;52.388;13.390;2022-12-18T17:31:19;-4.97;90.18
47757;SHT35;22147;52.388;13.390;2022-12-18T17:33:50;-5.02;90.42
47757;SHT35;22147;52.388;13.390;2022-12-18T17:36:22;-5.00;90.58
47757;SHT35;22147;52.388;13.390;2022-12-18T17:38:59;-4.99;90.59
47757;SHT35;22147;52.388;13.390;2022-12-18T17:41:30;-5.04;90.55